createdAt,value
2022-12-07T00:01:45.529Z,101160.36
2022-12-07T00:04:16.370Z,101162.41
2022-12-07T00:06:47.718Z,101161.30
2022-12-07T00:09:18.014Z,101161.77
2022-12-07T00:11:50.780Z,101162.92
2022-12-07T00:14:20.025Z,101165.48
2022-12-07T00:16:51.571Z,101167.21
2022-12-07T00:19:20.372Z,101169.91
2022-12-07T00:21:48.746Z,101164.46
2022-12-07T00:24:17.125Z,101164.39
2022-12-07T00:26:46.639Z,101164.93
2022-12-07T00:29:20.680Z,101164.02
2022-12-07T00:31:49.194Z,101157.38
2022-12-07T00:34:20.019Z,101153.36
2022-12-07T00:36:48.461Z,101153.77
2022-12-07T00:39:17.126Z,101156.16
2022-12-07T00:41:45.402Z,101152.09
2022-12-07T00:44:14.093Z,101147.02
2022-12-07T00:46:42.470Z,101153.11
2022-12-07T00:49:10.747Z,101154.66
2022-12-07T00:51:39.674Z,101150.61
2022-12-07T00:54:08.123Z,101149.12
2022-12-07T00:56:36.600Z,101149.80
2022-12-07T00:59:05.600Z,101148.86
2022-12-07T01:01:36.633Z,101149.59
2022-12-07T01:04:05.530Z,101140.79
2022-12-07T01:06:33.803Z,101136.48
2022-12-07T01:09:02.293Z,101134.71
2022-12-07T01:11:32.099Z,101133.14
2022-12-07T01:14:02.054Z,101133.03
2022-12-07T01:16:32.419Z,101130.27
2022-12-07T01:19:02.001Z,101129.65
2022-12-07T01:21:36.054Z,101130.55
2022-12-07T01:24:11.410Z,101128.23
2022-12-07T01:26:39.680Z,101126.21
2022-12-07T01:29:08.163Z,101125.81
2022-12-07T01:31:36.542Z,101125.84
2022-12-07T01:34:04.923Z,101126.27
2022-12-07T01:36:36.176Z,101126.58
2022-12-07T01:39:07.290Z,101127.58
2022-12-07T01:41:44.730Z,101128.52
2022-12-07T01:44:23.632Z,101118.30
2022-12-07T01:46:57.536Z,101107.98
2022-12-07T01:49:38.858Z,101099.41
2022-12-07T01:52:16.315Z,101103.81
2022-12-07T01:54:46.360Z,101105.70
2022-12-07T01:57:17.066Z,101105.15
2022-12-07T01:59:47.102Z,101109.46
2022-12-07T02:02:22.116Z,101110.00
2022-12-07T02:04:50.706Z,101107.20
2022-12-07T02:07:18.980Z,101107.20
2022-12-07T02:09:47.258Z,101110.12
2022-12-07T02:12:16.252Z,101110.05
2022-12-07T02:14:44.533Z,101112.27
2022-12-07T02:17:24.580Z,101115.84
2022-12-07T02:20:16.980Z,101118.67
2022-12-07T02:22:47.904Z,101125.89
2022-12-07T02:25:16.968Z,101119.98
2022-12-07T02:27:53.020Z,101110.02
2022-12-07T02:30:22.727Z,101108.09
2022-12-07T02:33:15.100Z,101110.11
2022-12-07T02:36:13.846Z,101107.45
2022-12-07T02:38:57.090Z,101109.02
2022-12-07T02:41:45.240Z,101110.66
2022-12-07T02:44:16.173Z,101109.66
2022-12-07T02:46:58.783Z,101105.14
2022-12-07T02:49:29.110Z,101098.34
2022-12-07T02:51:57.661Z,101091.27
2022-12-07T02:54:26.108Z,101091.65
2022-12-07T02:57:09.340Z,101088.10
2022-12-07T03:00:03.619Z,101078.56
2022-12-07T03:02:47.935Z,101077.15
2022-12-07T03:05:23.181Z,101072.73
2022-12-07T03:08:17.397Z,101076.53
2022-12-07T03:11:05.089Z,101076.11
2022-12-07T03:13:46.894Z,101076.67
2022-12-07T03:16:22.178Z,101078.64
2022-12-07T03:19:10.960Z,101081.67
2022-12-07T03:21:46.135Z,101079.61
2022-12-07T03:24:20.272Z,101078.17
2022-12-07T03:27:03.163Z,101075.86
2022-12-07T03:29:46.765Z,101077.41
2022-12-07T03:32:45.908Z,101085.30
2022-12-07T03:35:35.171Z,101087.23
2022-12-07T03:38:38.262Z,101086.48
2022-12-07T03:41:08.894Z,101089.31
2022-12-07T03:43:37.481Z,101088.59
2022-12-07T03:46:52.106Z,101080.05
2022-12-07T03:49:32.403Z,101075.08
2022-12-07T03:52:12.863Z,101072.27
2022-12-07T03:54:59.167Z,101071.51
2022-12-07T03:57:29.284Z,101069.60
2022-12-07T03:59:58.733Z,101069.07
2022-12-07T04:02:29.045Z,101064.60
2022-12-07T04:04:57.903Z,101068.22
2022-12-07T04:07:26.725Z,101066.16
2022-12-07T04:09:56.299Z,101064.41
2022-12-07T04:12:25.089Z,101068.69
2022-12-07T04:14:53.466Z,101067.48
2022-12-07T04:17:22.049Z,101063.55
2022-12-07T04:19:50.327Z,101064.25
2022-12-07T04:22:18.603Z,101065.10
2022-12-07T04:24:46.985Z,101070.63
2022-12-07T04:27:15.680Z,101071.45
2022-12-07T04:29:44.081Z,101066.88
2022-12-07T04:32:12.428Z,101062.25
2022-12-07T04:34:41.423Z,101061.48
2022-12-07T04:37:09.701Z,101058.47
2022-12-07T04:39:38.261Z,101058.80
2022-12-07T04:42:06.602Z,101057.05
2022-12-07T04:44:35.147Z,101055.74
2022-12-07T04:47:04.010Z,101049.08
2022-12-07T04:49:32.312Z,101043.20
2022-12-07T04:52:00.690Z,101043.14
2022-12-07T04:54:31.834Z,101040.70
2022-12-07T04:57:00.442Z,101041.50
2022-12-07T04:59:28.702Z,101042.59
2022-12-07T05:01:57.141Z,101047.02
2022-12-07T05:04:25.762Z,101043.77
2022-12-07T05:06:54.139Z,101047.31
2022-12-07T05:09:22.627Z,101048.69
2022-12-07T05:11:51.019Z,101048.40
2022-12-07T05:14:21.536Z,101047.27
2022-12-07T05:16:52.154Z,101047.63
2022-12-07T05:19:20.749Z,101043.30
2022-12-07T05:21:49.742Z,101046.14
2022-12-07T05:24:18.941Z,101042.67
2022-12-07T05:26:47.219Z,101044.90
2022-12-07T05:29:17.337Z,101042.05
2022-12-07T05:31:46.167Z,101042.25
2022-12-07T05:34:14.922Z,101045.95
2022-12-07T05:36:43.127Z,101047.77
2022-12-07T05:39:11.780Z,101056.61
2022-12-07T05:41:58.587Z,101061.71
2022-12-07T05:44:27.274Z,101068.11
2022-12-07T05:46:55.756Z,101071.50
2022-12-07T05:49:24.141Z,101074.98
2022-12-07T05:51:52.520Z,101077.29
2022-12-07T05:54:21.304Z,101082.33
2022-12-07T05:56:49.685Z,101084.28
2022-12-07T05:59:24.431Z,101084.75
2022-12-07T06:02:01.390Z,101088.75
2022-12-07T06:04:32.435Z,101089.19
2022-12-07T06:07:01.228Z,101087.73
2022-12-07T06:09:30.276Z,101084.64
2022-12-07T06:12:18.164Z,101085.13
2022-12-07T06:14:46.735Z,101082.70
2022-12-07T06:17:15.616Z,101082.55
2022-12-07T06:19:44.519Z,101081.39
2022-12-07T06:22:13.519Z,101080.61
2022-12-07T06:24:41.793Z,101079.47
2022-12-07T06:27:11.098Z,101083.60
2022-12-07T06:29:39.374Z,101084.31
2022-12-07T06:32:08.016Z,101087.69
2022-12-07T06:34:37.231Z,101091.06
2022-12-07T06:37:05.530Z,101067.31
2022-12-07T06:39:36.068Z,101090.84
2022-12-07T06:42:04.798Z,101099.73
2022-12-07T06:44:33.746Z,101097.17
2022-12-07T06:47:31.792Z,101098.53
2022-12-07T06:49:50.468Z,101100.98
2022-12-07T06:52:18.847Z,101098.82
2022-12-07T06:54:47.123Z,101098.38
2022-12-07T06:57:15.609Z,101099.38
2022-12-07T06:59:43.990Z,101095.88
2022-12-07T07:02:12.683Z,101097.36
2022-12-07T07:04:41.259Z,101099.48
2022-12-07T07:07:09.639Z,101100.47
2022-12-07T07:09:38.014Z,101095.95
2022-12-07T07:12:06.499Z,101099.50
2022-12-07T07:14:34.874Z,101097.58
2022-12-07T07:17:03.299Z,101099.12
2022-12-07T07:19:32.152Z,101100.14
2022-12-07T07:22:00.322Z,101098.37
2022-12-07T07:24:28.603Z,101097.65
2022-12-07T07:26:56.874Z,101094.37
2022-12-07T07:29:25.264Z,101096.21
2022-12-07T07:31:53.736Z,101097.50
2022-12-07T07:34:22.116Z,101096.36
2022-12-07T07:36:50.596Z,101094.16
2022-12-07T07:39:18.976Z,101095.77
2022-12-07T07:41:47.969Z,101095.37
2022-12-07T07:44:16.450Z,101094.25
2022-12-07T07:46:44.941Z,101095.71
2022-12-07T07:49:13.517Z,101094.86
2022-12-07T07:51:41.900Z,101096.02
2022-12-07T07:54:10.378Z,101097.58
2022-12-07T07:56:38.760Z,101095.86
2022-12-07T07:59:07.239Z,101096.92
2022-12-07T08:01:36.398Z,101095.33
2022-12-07T08:04:04.722Z,101092.42
2022-12-07T08:06:33.125Z,101091.80
2022-12-07T08:09:01.679Z,101092.38
2022-12-07T08:11:30.673Z,101096.43
2022-12-07T08:13:58.855Z,101100.83
2022-12-07T08:16:27.822Z,101099.92
2022-12-07T08:18:56.170Z,101096.52
2022-12-07T08:21:24.805Z,101096.05
2022-12-07T08:23:53.204Z,101100.85
2022-12-07T08:26:21.561Z,101101.67
2022-12-07T08:28:50.042Z,101105.10
2022-12-07T08:31:20.414Z,101106.91
2022-12-07T08:33:49.360Z,101104.17
2022-12-07T08:36:18.656Z,101100.13
2022-12-07T08:39:22.588Z,101101.81
2022-12-07T08:41:36.008Z,101101.27
2022-12-07T08:44:04.902Z,101096.75
2022-12-07T08:46:40.373Z,101096.41
2022-12-07T08:49:28.378Z,101092.82
2022-12-07T08:51:58.807Z,101091.11
2022-12-07T08:54:27.494Z,101091.98
2022-12-07T08:56:59.390Z,101090.73
2022-12-07T08:59:29.898Z,101090.05
2022-12-07T09:01:58.340Z,101085.56
2022-12-07T09:04:26.755Z,101082.05
2022-12-07T09:06:55.926Z,101082.71
2022-12-07T09:09:24.220Z,101078.83
2022-12-07T09:11:52.604Z,101079.88
2022-12-07T09:14:20.980Z,101076.95
2022-12-07T09:16:49.480Z,101073.51
2022-12-07T09:19:17.843Z,101074.26
2022-12-07T09:21:48.274Z,101069.06
2022-12-07T09:24:16.751Z,101069.98
2022-12-07T09:26:45.750Z,101066.09
2022-12-07T09:29:14.122Z,101064.15
2022-12-07T09:31:42.700Z,101060.04
2022-12-07T09:34:11.254Z,101061.14
2022-12-07T09:36:39.878Z,101061.42
2022-12-07T09:39:08.276Z,101054.13
2022-12-07T09:41:40.664Z,101050.97
2022-12-07T09:44:14.143Z,101050.73
2022-12-07T09:46:44.531Z,101044.23
2022-12-07T09:49:18.967Z,101044.15
2022-12-07T09:51:47.867Z,101043.70
2022-12-07T09:54:17.796Z,101038.27
2022-12-07T09:56:46.263Z,101037.64
2022-12-07T09:59:19.358Z,101041.33
2022-12-07T10:01:49.946Z,101043.69
2022-12-07T10:04:22.619Z,101044.31
2022-12-07T10:06:52.422Z,101048.49
2022-12-07T10:09:23.034Z,101044.85
2022-12-07T10:12:11.867Z,101048.41
2022-12-07T10:15:09.092Z,101042.74
2022-12-07T10:17:44.885Z,101037.80
2022-12-07T10:20:13.150Z,101039.53
2022-12-07T10:22:58.329Z,101037.38
2022-12-07T10:25:30.495Z,101033.33
2022-12-07T10:28:13.554Z,101030.64
2022-12-07T10:31:01.152Z,101026.58
2022-12-07T10:33:51.644Z,101021.95
2022-12-07T10:36:26.597Z,101024.23
2022-12-07T10:39:15.937Z,101026.15
2022-12-07T10:41:59.609Z,101024.40
2022-12-07T10:44:33.394Z,101020.11
2022-12-07T10:47:01.670Z,101020.11
2022-12-07T10:49:38.853Z,101015.23
2022-12-07T10:52:25.973Z,101017.88
2022-12-07T10:55:08.175Z,101010.72
2022-12-07T10:57:42.643Z,101011.59
2022-12-07T11:00:24.392Z,101016.85
2022-12-07T11:03:32.522Z,101017.59
2022-12-07T11:06:15.938Z,101014.27
2022-12-07T11:09:16.367Z,101009.96
2022-12-07T11:12:18.945Z,101002.51
2022-12-07T11:15:04.737Z,100998.98
2022-12-07T11:17:54.620Z,100999.91
2022-12-07T11:20:35.287Z,101000.20
2022-12-07T11:23:22.509Z,100998.96
2022-12-07T11:25:59.794Z,100998.42
2022-12-07T11:28:37.099Z,101001.69
2022-12-07T11:31:32.833Z,100999.94
2022-12-07T11:34:26.682Z,100998.88
2022-12-07T11:36:56.901Z,100999.36
2022-12-07T11:39:34.603Z,100995.19
2022-12-07T11:42:08.018Z,100988.04
2022-12-07T11:44:41.089Z,100982.16
2022-12-07T11:47:13.865Z,100979.28
2022-12-07T11:50:20.599Z,100977.43
2022-12-07T11:52:54.837Z,100982.86
2022-12-07T11:55:34.203Z,100985.11
2022-12-07T11:58:22.855Z,100987.41
2022-12-07T12:00:53.805Z,100989.59
2022-12-07T12:03:33.133Z,100994.83
2022-12-07T12:06:01.410Z,100992.09
2022-12-07T12:15:18.780Z,100986.61
2022-12-07T12:18:21.564Z,100979.16
2022-12-07T12:20:49.841Z,100982.12
2022-12-07T12:23:18.224Z,100983.71
2022-12-07T12:25:50.617Z,100988.90
2022-12-07T12:28:46.793Z,100989.59
2022-12-07T12:31:21.426Z,100984.63
2022-12-07T12:33:53.288Z,100987.41
2022-12-07T12:36:36.607Z,100992.32
2022-12-07T12:39:08.096Z,100993.98
2022-12-07T12:41:42.314Z,100994.77
2022-12-07T12:44:16.634Z,100991.95
2022-12-07T12:46:52.894Z,100995.83
2022-12-07T12:49:21.069Z,100995.31
2022-12-07T12:51:50.885Z,100996.90
2022-12-07T12:54:19.267Z,100996.20
2022-12-07T12:57:09.656Z,100983.15
2022-12-07T12:59:59.237Z,100982.67
2022-12-07T13:02:37.270Z,100975.95
2022-12-07T13:05:11.448Z,100977.30
2022-12-07T13:07:49.026Z,100982.88
2022-12-07T13:10:36.274Z,100984.98
2022-12-07T13:13:14.072Z,100977.85
2022-12-07T13:15:46.975Z,100980.64
2022-12-07T13:18:33.369Z,100979.90
2022-12-07T13:21:10.568Z,100982.44
2022-12-07T13:23:45.122Z,100981.10
2022-12-07T13:26:21.129Z,100983.48
2022-12-07T13:29:11.022Z,100986.48
2022-12-07T13:31:53.418Z,100990.80
2022-12-07T13:34:35.223Z,100992.20
2022-12-07T13:37:12.598Z,100996.25
2022-12-07T13:39:54.906Z,100994.70
2022-12-07T13:42:28.207Z,100993.14
2022-12-07T13:44:58.423Z,100993.07
2022-12-07T13:47:46.671Z,100997.95
2022-12-07T13:50:32.907Z,101000.05
2022-12-07T13:53:02.578Z,100996.23
2022-12-07T13:55:31.471Z,100989.64
2022-12-07T13:58:01.182Z,100989.13
2022-12-07T14:00:31.315Z,100988.32
2022-12-07T14:03:01.101Z,100990.20
2022-12-07T14:05:34.714Z,100993.64
2022-12-07T14:08:05.808Z,101000.05
2022-12-07T14:10:42.655Z,101007.11
2022-12-07T14:14:06.105Z,101010.59
2022-12-07T14:16:37.349Z,101009.83
2022-12-07T14:19:23.165Z,100999.30
2022-12-07T14:22:08.304Z,100996.13
2022-12-07T14:24:46.112Z,101002.20
2022-12-07T14:27:22.597Z,101011.69
2022-12-07T14:29:51.063Z,101022.59
2022-12-07T14:32:31.635Z,101021.83
2022-12-07T14:35:09.510Z,101015.14
2022-12-07T14:37:38.934Z,101014.47
2022-12-07T14:40:08.521Z,101011.63
2022-12-07T14:42:36.925Z,101012.63
2022-12-07T14:45:06.808Z,101015.13
2022-12-07T14:50:23.361Z,101004.91
2022-12-07T14:55:45.612Z,101002.02
2022-12-07T14:58:16.043Z,101000.88
2022-12-07T15:00:44.833Z,101004.60
2022-12-07T15:03:14.500Z,101007.92
2022-12-07T15:05:43.228Z,101006.31
2022-12-07T15:08:15.245Z,101007.62
2022-12-07T15:10:43.811Z,101009.13
2022-12-07T15:13:30.796Z,101009.55
2022-12-07T15:15:59.207Z,101014.10
2022-12-07T15:18:27.656Z,101014.27
2022-12-07T15:20:56.037Z,101021.23
2022-12-07T15:23:24.418Z,101020.86
2022-12-07T15:25:53.015Z,101016.91
2022-12-07T15:28:21.273Z,101017.30
2022-12-07T15:30:49.872Z,101019.25
2022-12-07T15:33:18.243Z,101018.67
2022-12-07T15:35:47.030Z,101014.54
2022-12-07T15:38:15.430Z,101014.52
2022-12-07T15:40:44.399Z,101012.35
2022-12-07T15:43:32.543Z,101016.10
2022-12-07T15:46:00.942Z,101020.51
2022-12-07T15:48:29.803Z,101020.10
2022-12-07T15:51:09.458Z,101016.52
2022-12-07T15:53:37.730Z,101019.98
2022-12-07T15:56:09.994Z,101022.73
2022-12-07T15:58:39.109Z,101021.44
2022-12-07T16:01:15.311Z,101021.86
2022-12-07T16:03:44.872Z,101023.04
2022-12-07T16:06:13.863Z,101027.16
2022-12-07T16:08:46.076Z,101029.07
2022-12-07T16:11:15.367Z,101032.31
2022-12-07T16:13:43.616Z,101032.64
2022-12-07T16:16:15.925Z,101036.77
2022-12-07T16:18:45.895Z,101039.13
2022-12-07T16:21:17.272Z,101043.85
2022-12-07T16:23:48.801Z,101046.28
2022-12-07T16:26:20.023Z,101050.03
2022-12-07T16:28:52.624Z,101048.59
2022-12-07T16:31:23.279Z,101048.34
2022-12-07T16:33:54.403Z,101051.09
2022-12-07T16:36:47.279Z,101058.15
2022-12-07T16:39:11.847Z,101056.13
2022-12-07T16:41:40.428Z,101058.91
2022-12-07T16:44:13.717Z,101063.23
2022-12-07T16:46:42.658Z,101064.23
2022-12-07T16:49:15.501Z,101066.68
2022-12-07T16:51:47.668Z,101069.51
2022-12-07T16:54:16.047Z,101069.31
2022-12-07T16:56:45.303Z,101068.28
2022-12-07T16:59:13.737Z,101066.04
2022-12-07T17:01:42.214Z,101065.69
2022-12-07T17:04:12.190Z,101066.17
2022-12-07T17:06:40.502Z,101070.05
2022-12-07T17:09:11.880Z,101070.36
2022-12-07T17:11:45.555Z,101072.13
2022-12-07T17:14:32.475Z,101069.15
2022-12-07T17:17:03.410Z,101075.11
2022-12-07T17:19:31.787Z,101075.21
2022-12-07T17:22:00.177Z,101076.06
2022-12-07T17:24:28.541Z,101078.88
2022-12-07T17:26:57.063Z,101091.42
2022-12-07T17:29:25.351Z,101093.17
2022-12-07T17:31:53.615Z,101099.17
2022-12-07T17:34:21.867Z,101099.50
2022-12-07T17:36:50.217Z,101099.25
2022-12-07T17:39:19.661Z,101099.05
2022-12-07T17:42:06.327Z,101095.74
2022-12-07T17:44:34.592Z,101097.50
2022-12-07T17:47:04.179Z,101100.60
2022-12-07T17:49:32.599Z,101098.39
2022-12-07T17:52:19.301Z,101100.09
2022-12-07T17:54:47.509Z,101099.30
2022-12-07T17:57:15.717Z,101095.77
2022-12-07T17:59:44.122Z,101091.36
2022-12-07T18:02:12.473Z,101093.86
2022-12-07T18:04:43.124Z,101090.55
2022-12-07T18:07:11.464Z,101088.38
2022-12-07T18:09:39.810Z,101086.46
2022-12-07T18:12:08.576Z,101085.00
2022-12-07T18:14:36.862Z,101083.21
2022-12-07T18:17:05.175Z,101085.54
2022-12-07T18:19:36.935Z,101084.14
2022-12-07T18:22:05.661Z,101083.58
2022-12-07T18:24:37.058Z,101079.42
2022-12-07T18:27:08.225Z,101082.93
2022-12-07T18:29:36.566Z,101086.66
2022-12-07T18:32:05.623Z,101082.34
2022-12-07T18:34:33.937Z,101080.23
2022-12-07T18:37:02.177Z,101076.51
2022-12-07T18:39:33.916Z,101072.55
2022-12-07T18:42:02.622Z,101073.86
2022-12-07T18:44:30.927Z,101074.71
2022-12-07T18:46:59.203Z,101073.54
2022-12-07T18:49:27.568Z,101072.22
2022-12-07T18:51:55.803Z,101076.40
2022-12-07T18:54:23.972Z,101076.11
2022-12-07T18:56:52.376Z,101077.58
2022-12-07T18:59:38.932Z,101075.05
2022-12-07T19:02:07.523Z,101077.17
2022-12-07T19:04:36.221Z,101072.27
2022-12-07T19:07:04.498Z,101074.96
2022-12-07T19:09:32.663Z,101077.23
2022-12-07T19:12:03.660Z,101079.03
2022-12-07T19:14:34.409Z,101085.78
2022-12-07T19:17:13.725Z,101086.91
2022-12-07T19:19:46.805Z,101086.70
2022-12-07T19:22:17.000Z,101093.44
2022-12-07T19:24:46.917Z,101098.61
2022-12-07T19:27:15.562Z,101088.95
2022-12-07T19:29:44.720Z,101108.52
2022-12-07T19:32:13.547Z,101108.67
2022-12-07T19:34:43.308Z,101107.30
2022-12-07T19:37:12.753Z,101107.75
2022-12-07T19:39:41.858Z,101101.98
2022-12-07T19:42:11.178Z,101092.93
2022-12-07T19:44:39.418Z,101092.23
2022-12-07T19:47:07.808Z,101092.49
2022-12-07T19:49:36.585Z,101093.48
2022-12-07T19:52:08.022Z,101095.77
2022-12-07T19:54:36.561Z,101095.88
2022-12-07T19:57:07.297Z,101096.81
2022-12-07T19:59:35.551Z,101097.98
2022-12-07T20:02:03.849Z,101096.59
2022-12-07T20:04:35.897Z,101098.39
2022-12-07T20:07:04.693Z,101096.91
2022-12-07T20:09:32.955Z,101105.10
2022-12-07T20:12:19.795Z,101109.77
2022-12-07T20:14:47.921Z,101111.36
2022-12-07T20:17:16.201Z,101110.48
2022-12-07T20:19:44.459Z,101111.98
2022-12-07T20:22:12.776Z,101107.63
2022-12-07T20:24:41.081Z,101100.86
2022-12-07T20:27:09.258Z,101093.70
2022-12-07T20:29:37.477Z,101092.09
2022-12-07T20:32:05.829Z,101094.32
2022-12-07T20:34:34.086Z,101096.90
2022-12-07T20:37:02.317Z,101101.16
2022-12-07T20:39:31.074Z,101102.38
2022-12-07T20:42:18.047Z,101110.11
2022-12-07T20:44:46.263Z,101113.45
2022-12-07T20:47:14.524Z,101117.14
2022-12-07T20:49:42.996Z,101116.48
2022-12-07T20:52:11.176Z,101124.02
2022-12-07T20:54:39.379Z,101127.42
2022-12-07T20:57:08.182Z,101134.27
2022-12-07T20:59:41.370Z,101137.45
2022-12-07T21:02:13.878Z,101143.59
2022-12-07T21:04:42.613Z,101144.02
2022-12-07T21:07:10.926Z,101143.27
2022-12-07T21:09:39.691Z,101134.40
2022-12-07T21:12:11.461Z,101125.30
2022-12-07T21:14:41.759Z,101116.52
2022-12-07T21:17:10.801Z,101111.00
2022-12-07T21:19:39.122Z,101113.43
2022-12-07T21:22:07.346Z,101125.10
2022-12-07T21:24:36.356Z,101131.30
2022-12-07T21:27:05.012Z,101134.00
2022-12-07T21:29:43.306Z,101138.45
2022-12-07T21:32:12.414Z,101137.59
2022-12-07T21:34:40.623Z,101129.08
2022-12-07T21:37:08.869Z,101127.48
2022-12-07T21:39:37.135Z,101127.26
2022-12-07T21:42:05.334Z,101132.98
2022-12-07T21:44:34.698Z,101136.42
2022-12-07T21:47:02.943Z,101141.96
2022-12-07T21:49:31.336Z,101152.20
2022-12-07T21:51:59.775Z,101153.27
2022-12-07T21:54:28.043Z,101152.06
2022-12-07T21:56:56.542Z,101145.52
2022-12-07T21:59:24.884Z,101137.48
2022-12-07T22:01:53.303Z,101133.66
2022-12-07T22:04:23.723Z,101138.02
2022-12-07T22:06:52.699Z,101139.78
2022-12-07T22:09:24.122Z,101147.13
2022-12-07T22:11:52.304Z,101151.45
2022-12-07T22:14:38.909Z,101155.30
2022-12-07T22:17:07.109Z,101156.32
2022-12-07T22:19:35.361Z,101156.77
2022-12-07T22:22:03.567Z,101155.36
2022-12-07T22:24:31.984Z,101145.96
2022-12-07T22:27:00.259Z,101146.55
2022-12-07T22:29:28.633Z,101143.55
2022-12-07T22:31:56.933Z,101146.38
2022-12-07T22:34:25.256Z,101154.15
2022-12-07T22:36:53.431Z,101151.30
2022-12-07T22:39:21.572Z,101151.04
2022-12-07T22:41:49.755Z,101154.44
2022-12-07T22:44:19.229Z,101154.21
2022-12-07T22:46:47.460Z,101150.48
2022-12-07T22:49:15.742Z,101152.65
2022-12-07T22:51:44.889Z,101151.23
2022-12-07T22:54:17.512Z,101143.77
2022-12-07T22:56:46.307Z,101137.91
2022-12-07T22:59:14.702Z,101134.70
2022-12-07T23:01:43.207Z,101131.70
2022-12-07T23:04:11.426Z,101131.86
2022-12-07T23:06:40.033Z,101132.02
2022-12-07T23:09:11.225Z,101126.51
2022-12-07T23:12:01.222Z,101123.41
2022-12-07T23:14:32.738Z,101134.45
2022-12-07T23:17:02.201Z,101135.08
2022-12-07T23:19:30.626Z,101132.91
2022-12-07T23:21:58.822Z,101133.40
2022-12-07T23:24:27.340Z,101134.09
2022-12-07T23:26:55.547Z,101130.67
2022-12-07T23:29:23.710Z,101129.52
2022-12-07T23:31:52.151Z,101128.16
2022-12-07T23:34:20.497Z,101135.73
2022-12-07T23:36:48.617Z,101144.58
2022-12-07T23:39:17.145Z,101149.98
2022-12-07T23:41:45.432Z,101152.83
2022-12-07T23:44:13.622Z,101151.08
2022-12-07T23:46:42.127Z,101156.04
2022-12-07T23:49:11.078Z,101160.62
2022-12-07T23:51:39.334Z,101159.54
2022-12-07T23:54:07.706Z,101152.52
2022-12-07T23:56:35.961Z,101151.68
2022-12-07T23:59:04.739Z,101147.23
